Time;durP1;ratioP1;P1;durP2;ratioP2;P2;SDS_P1;SDS_P2;PMS_P1;PMS_P2;Temp;Humidity;BMP_temperature;BMP_pressure;BME280_temperature;BME280_humidity;BME280_pressure;Samples;Min_cycle;Max_cycle;Signal;HPM_P1;HPM_P2
2022/04/20 00:00:54;;;;;;;4.55;2.05;;;;;;;7.30;60.50;99803.81;1756978;79;21027;-52
2022/04/20 00:03:21;;;;;;;4.20;1.70;;;;;;;7.29;60.59;99806.06;1757802;80;21075;-53
2022/04/20 00:05:49;;;;;;;5.35;2.27;;;;;;;7.33;60.67;99804.86;1755852;80;21528;-52
2022/04/20 00:08:15;;;;;;;4.08;1.72;;;;;;;7.40;60.66;99804.30;1763680;80;21025;-52
2022/04/20 00:10:43;;;;;;;4.37;1.82;;;;;;;7.45;60.55;99806.57;1758607;80;21053;-52
2022/04/20 00:13:11;;;;;;;5.50;2.27;;;;;;;7.50;60.52;99808.36;1755390;80;21428;-53
2022/04/20 00:15:37;;;;;;;4.47;2.00;;;;;;;7.54;60.30;99808.95;1756394;80;21369;-53
2022/04/20 00:18:06;;;;;;;5.00;2.20;;;;;;;7.55;60.13;99816.70;1758440;80;21080;-53
2022/04/20 00:20:34;;;;;;;5.10;2.27;;;;;;;7.54;60.09;99820.25;1757851;79;21047;-53
2022/04/20 00:23:00;;;;;;;5.30;2.30;;;;;;;7.50;59.98;99829.30;1757836;79;21047;-52
2022/04/20 00:25:27;;;;;;;5.87;2.37;;;;;;;7.44;60.01;99820.11;1754943;80;21046;-52
2022/04/20 00:27:53;;;;;;;5.45;2.40;;;;;;;7.42;60.05;99827.73;1757413;80;21100;-53
2022/04/20 00:30:21;;;;;;;5.40;2.08;;;;;;;7.43;60.13;99825.46;1761283;79;21981;-53
2022/04/20 00:32:50;;;;;;;5.95;2.10;;;;;;;7.41;60.12;99824.75;1757606;80;21112;-53
2022/04/20 00:35:16;;;;;;;5.37;2.15;;;;;;;7.34;60.25;99827.00;1755609;79;21041;-53
2022/04/20 00:37:44;;;;;;;5.47;2.62;;;;;;;7.30;60.37;99824.27;1754589;80;21613;-53
2022/04/20 00:40:12;;;;;;;5.10;2.17;;;;;;;7.28;60.49;99830.09;1740246;80;21072;-53
2022/04/20 00:42:40;;;;;;;5.95;2.08;;;;;;;7.26;60.56;99829.36;1755683;80;21846;-53
2022/04/20 00:45:11;;;;;;;5.00;2.47;;;;;;;7.24;60.66;99827.34;1758897;80;21047;-52
2022/04/20 00:47:43;;;;;;;6.20;2.22;;;;;;;7.28;60.72;99827.48;1750892;80;21602;-52
2022/04/20 00:50:11;;;;;;;5.20;2.35;;;;;;;7.36;60.64;99832.98;1761787;79;21091;-52
2022/04/20 00:52:39;;;;;;;4.80;1.95;;;;;;;7.43;60.43;99839.41;1758427;79;21072;-53
2022/04/20 00:55:07;;;;;;;6.25;2.52;;;;;;;7.46;60.44;99842.25;1756247;80;21154;-52
2022/04/20 00:57:35;;;;;;;5.25;2.33;;;;;;;7.48;60.36;99841.69;1756055;80;21078;-53
2022/04/20 01:00:05;;;;;;;5.10;2.25;;;;;;;7.48;60.41;99839.52;1750917;80;21075;-53
2022/04/20 01:02:35;;;;;;;4.85;2.17;;;;;;;7.49;60.52;99840.71;1705460;82;21060;-53
2022/04/20 01:05:03;;;;;;;6.37;2.42;;;;;;;7.50;60.42;99843.70;1760955;80;21025;-53
2022/04/20 01:07:49;;;;;;;5.60;2.37;;;;;;;7.49;60.45;99835.97;1757394;80;21098;-52
2022/04/20 01:10:35;;;;;;;4.80;2.17;;;;;;;7.46;60.36;99834.88;1669433;83;21075;-52
2022/04/20 01:13:06;;;;;;;5.42;2.42;;;;;;;7.43;60.36;99834.17;1735107;80;21114;-53
2022/04/20 01:15:36;;;;;;;6.28;2.95;;;;;;;7.40;60.30;99834.88;1688975;83;21535;-53
2022/04/20 01:18:15;;;;;;;6.10;2.75;;;;;;;7.37;60.35;99841.66;1737350;80;21054;-52
2022/04/20 01:20:46;;;;;;;4.83;2.25;;;;;;;7.36;60.34;99841.28;1757506;80;21161;-52
2022/04/20 01:23:15;;;;;;;6.05;2.87;;;;;;;7.33;60.30;99841.05;1746282;80;21043;-52
2022/04/20 01:25:49;;;;;;;5.33;2.55;;;;;;;7.32;60.28;99844.61;1755301;79;21051;-52
2022/04/20 01:28:23;;;;;;;6.55;2.40;;;;;;;7.28;60.30;99839.70;1712814;80;21087;-53
2022/04/20 01:31:07;;;;;;;5.42;2.60;;;;;;;7.23;60.40;99842.21;1769472;79;21041;-53
2022/04/20 01:33:49;;;;;;;6.47;2.52;;;;;;;7.23;60.42;99843.52;1754108;80;21161;-52
2022/04/20 01:36:15;;;;;;;5.78;2.58;;;;;;;7.28;60.39;99837.09;1760050;80;21602;-53
2022/04/20 01:38:42;;;;;;;5.72;2.27;;;;;;;7.33;60.07;99838.44;1753751;80;21580;-53
2022/04/20 01:41:10;;;;;;;3.87;1.87;;;;;;;7.39;59.94;99841.87;1752274;79;21057;-52
2022/04/20 01:43:38;;;;;;;5.17;2.45;;;;;;;7.44;59.66;99833.20;1762462;79;21002;-52
2022/04/20 01:47:13;;;;;;;5.67;2.42;;;;;;;7.48;59.37;99832.52;1788110;79;22834;-52
2022/04/20 01:50:00;;;;;;;6.15;3.05;;;;;;;7.46;59.17;99833.09;1762843;80;21115;-52
2022/04/20 01:52:36;;;;;;;6.70;2.67;;;;;;;7.40;59.18;99829.16;1758906;80;21015;-52
2022/04/20 01:55:20;;;;;;;5.65;2.17;;;;;;;7.36;59.30;99826.44;1628689;86;21114;-52
2022/04/20 01:58:05;;;;;;;6.33;2.40;;;;;;;7.32;59.25;99828.08;1733854;80;20997;-52
2022/04/20 02:00:39;;;;;;;5.50;2.50;;;;;;;7.24;59.27;99830.77;1699119;83;21058;-53
2022/04/20 02:03:27;;;;;;;6.08;2.60;;;;;;;7.17;59.39;99831.37;1709076;83;21023;-53
2022/04/20 02:05:59;;;;;;;5.60;2.40;;;;;;;7.13;59.63;99837.30;1729766;81;21999;-53
2022/04/20 02:08:29;;;;;;;6.67;2.35;;;;;;;7.10;59.67;99844.07;1731368;80;20961;-53
2022/04/20 02:11:04;;;;;;;4.78;1.95;;;;;;;7.06;59.80;99836.92;1724608;81;21075;-53
2022/04/20 02:13:32;;;;;;;5.08;2.40;;;;;;;7.05;59.84;99841.78;1706889;81;21133;-54
2022/04/20 02:16:01;;;;;;;5.78;2.60;;;;;;;7.03;59.84;99841.08;1709228;81;21508;-51
2022/04/20 02:18:47;;;;;;;4.58;2.00;;;;;;;7.02;59.80;99841.19;1732506;81;21151;-53
2022/04/20 02:21:33;;;;;;;4.90;2.40;;;;;;;6.99;59.61;99841.41;1730271;81;20983;-52
2022/04/20 02:24:00;;;;;;;4.80;1.95;;;;;;;6.94;59.69;99844.35;1729191;81;21113;-52
2022/04/20 02:26:26;;;;;;;6.45;2.72;;;;;;;6.92;59.82;99841.50;1713882;82;21044;-53
2022/04/20 02:28:53;;;;;;;5.20;2.45;;;;;;;6.90;59.88;99845.54;1705911;82;21145;-52
2022/04/20 02:31:21;;;;;;;6.05;2.45;;;;;;;6.92;59.72;99846.73;1715874;82;21174;-53
2022/04/20 02:33:47;;;;;;;4.15;1.82;;;;;;;6.99;59.67;99846.64;1712567;82;21058;-52
2022/04/20 02:36:14;;;;;;;4.30;1.87;;;;;;;7.06;59.35;99842.61;1725237;82;21563;-52
2022/04/20 02:38:40;;;;;;;6.58;2.60;;;;;;;7.10;59.31;99837.53;1706870;82;21578;-52
2022/04/20 02:41:07;;;;;;;6.37;2.45;;;;;;;7.12;59.18;99839.55;1708952;82;21146;-52
2022/04/20 02:43:33;;;;;;;5.20;2.37;;;;;;;7.11;58.95;99835.73;1712830;82;21297;-53
2022/04/20 02:46:00;;;;;;;5.30;1.92;;;;;;;7.07;59.14;99837.27;1704115;82;21072;-52
2022/04/20 02:48:26;;;;;;;5.95;2.58;;;;;;;7.08;59.26;99835.51;1746173;80;21082;-52
2022/04/20 02:50:54;;;;;;;4.90;1.95;;;;;;;7.12;59.21;99837.42;1751067;80;21122;-52
2022/04/20 02:53:21;;;;;;;4.75;2.25;;;;;;;7.12;59.04;99837.42;1751697;80;21102;-53
2022/04/20 02:55:50;;;;;;;6.12;2.22;;;;;;;7.11;58.98;99833.13;1753594;80;21234;-52
2022/04/20 02:58:17;;;;;;;4.62;2.08;;;;;;;7.09;59.10;99842.39;1749639;80;21528;-52
2022/04/20 03:00:45;;;;;;;4.62;2.00;;;;;;;7.04;58.92;99840.59;1763912;80;21035;-52
2022/04/20 03:03:14;;;;;;;4.72;2.15;;;;;;;6.99;59.09;99844.88;1757510;80;21004;-51
2022/04/20 03:05:42;;;;;;;5.03;2.05;;;;;;;6.96;59.34;99841.63;1766436;80;21767;-51
2022/04/20 03:08:09;;;;;;;7.10;2.55;;;;;;;6.95;59.43;99846.52;1758611;79;21201;-52
2022/04/20 03:10:38;;;;;;;4.97;2.17;;;;;;;6.94;59.45;99847.45;1719644;82;21081;-52
2022/04/20 03:13:06;;;;;;;6.00;1.98;;;;;;;6.92;59.51;99852.79;1738518;80;21087;-52
2022/04/20 03:15:33;;;;;;;4.62;1.72;;;;;;;6.90;59.56;99852.56;1748476;80;21561;-52
2022/04/20 03:18:00;;;;;;;3.58;1.72;;;;;;;6.86;59.58;99850.16;1753261;80;21580;-52
2022/04/20 03:20:27;;;;;;;4.95;2.33;;;;;;;6.84;59.63;99842.05;1749572;80;22257;-52
2022/04/20 03:22:55;;;;;;;4.90;2.15;;;;;;;6.83;59.65;99846.45;1731460;80;21007;-52
2022/04/20 03:25:22;;;;;;;4.37;2.00;;;;;;;6.84;59.55;99859.05;1751040;80;21506;-52
2022/04/20 03:27:55;;;;;;;4.55;2.00;;;;;;;6.90;59.51;99857.79;1751432;80;21040;-52
2022/04/20 03:30:22;;;;;;;5.75;2.37;;;;;;;6.95;59.33;99852.57;1752893;80;21047;-52
2022/04/20 03:32:51;;;;;;;4.70;1.95;;;;;;;6.97;59.12;99849.36;1748771;80;21067;-52
2022/04/20 03:35:17;;;;;;;4.05;1.77;;;;;;;6.96;59.23;99853.39;1764756;80;21059;-52
2022/04/20 14:04:52;;;;;;;8.23;3.87;;;;;;;10.73;48.68;99818.91;1771302;79;22218;-52
2022/04/20 14:07:20;;;;;;;6.20;3.08;;;;;;;10.74;48.95;99815.78;1747780;81;21555;-52
2022/04/20 14:09:48;;;;;;;6.87;3.00;;;;;;;10.74;49.22;99817.95;1742270;81;21107;-52
2022/04/20 14:12:16;;;;;;;6.55;2.92;;;;;;;10.74;49.34;99809.20;1742425;80;21082;-51
2022/04/20 14:14:45;;;;;;;6.28;2.95;;;;;;;10.75;49.72;99808.24;1748433;80;21006;-53
2022/04/20 14:17:15;;;;;;;6.30;3.10;;;;;;;10.75;49.85;99812.19;1746409;80;20983;-52
2022/04/20 14:19:42;;;;;;;5.75;2.83;;;;;;;10.72;50.63;99815.09;1746976;80;21528;-52
2022/04/20 14:22:16;;;;;;;5.75;3.00;;;;;;;10.71;50.54;99814.77;1748728;81;21448;-51
2022/04/20 14:24:43;;;;;;;6.42;3.25;;;;;;;10.68;51.00;99812.40;1746039;80;21050;-51
2022/04/20 14:32:42;;;;;;;6.28;3.27;;;;;;;10.58;51.29;99829.48;1744856;80;21110;-53
2022/04/20 14:35:10;;;;;;;5.42;2.67;;;;;;;10.51;51.83;99831.83;1739713;81;21153;-52
2022/04/20 14:37:36;;;;;;;6.95;2.98;;;;;;;10.48;52.02;99838.67;1742540;80;21046;-52
2022/04/20 14:40:05;;;;;;;5.12;2.87;;;;;;;10.45;52.17;99838.94;1738953;81;21121;-52
2022/04/20 14:42:32;;;;;;;7.53;3.20;;;;;;;10.44;51.90;99845.64;1741954;80;21058;-52
2022/04/20 14:45:01;;;;;;;6.30;3.27;;;;;;;10.38;51.86;99845.71;1745801;80;21962;-52
2022/04/20 14:47:28;;;;;;;6.83;3.02;;;;;;;10.33;52.02;99843.48;1731459;80;21123;-52
2022/04/20 14:49:55;;;;;;;7.30;3.10;;;;;;;10.29;52.43;99849.95;1725991;81;21047;-53
2022/04/20 14:52:22;;;;;;;5.70;3.15;;;;;;;10.26;52.42;99849.39;1737887;81;21023;-52
2022/04/20 14:54:49;;;;;;;11.45;3.33;;;;;;;10.22;52.74;99847.48;1746573;81;21117;-52
2022/04/20 14:57:17;;;;;;;5.75;2.67;;;;;;;10.15;53.10;99847.19;1742089;80;21278;-52
2022/04/20 14:59:44;;;;;;;8.15;3.47;;;;;;;10.11;53.28;99845.80;1751185;80;22850;-53
2022/04/20 15:02:10;;;;;;;7.70;3.27;;;;;;;10.08;53.55;99847.38;1738207;80;21123;-53
2022/04/20 15:04:38;;;;;;;8.93;3.70;;;;;;;10.07;53.70;99862.82;1723885;80;22132;-53
2022/04/20 15:07:06;;;;;;;7.80;3.40;;;;;;;10.01;53.58;99852.83;1721640;82;21620;-52
2022/04/20 15:09:33;;;;;;;8.50;4.78;;;;;;;9.94;53.78;99855.64;1710796;82;21102;-52
2022/04/20 15:12:00;;;;;;;7.62;4.60;;;;;;;9.93;54.23;99859.22;1727532;81;21138;-53
2022/04/20 15:14:27;;;;;;;7.50;4.08;;;;;;;9.90;54.44;99860.79;1708048;82;21056;-52
2022/04/20 15:16:54;;;;;;;6.62;3.40;;;;;;;9.86;54.71;99862.36;1713701;81;21083;-53
2022/04/20 15:19:22;;;;;;;7.40;3.45;;;;;;;9.84;55.05;99860.36;1731468;81;21029;-53
2022/04/20 15:21:49;;;;;;;6.60;3.70;;;;;;;9.80;55.37;99860.28;1717211;81;21035;-53
2022/04/20 15:24:15;;;;;;;8.10;4.53;;;;;;;9.74;55.58;99870.47;1721305;81;21155;-53
2022/04/20 15:26:44;;;;;;;6.62;4.10;;;;;;;9.65;55.62;99866.84;1711452;82;21086;-53
2022/04/20 15:29:10;;;;;;;7.33;4.97;;;;;;;9.59;56.33;99867.34;1728521;82;21044;-53
2022/04/20 15:31:38;;;;;;;8.70;4.92;;;;;;;9.53;56.57;99872.64;1648203;85;21084;-52
2022/04/20 15:34:05;;;;;;;7.60;5.28;;;;;;;9.47;57.33;99874.46;1682696;84;21142;-52
2022/04/20 15:36:36;;;;;;;9.05;4.97;;;;;;;9.38;57.87;99873.44;1694205;83;21664;-52
2022/04/20 15:39:12;;;;;;;8.30;4.95;;;;;;;9.28;58.53;99873.85;1683543;84;21004;-52
2022/04/20 15:41:41;;;;;;;9.13;5.37;;;;;;;9.17;59.36;99873.41;1656874;84;21059;-52
2022/04/20 15:44:07;;;;;;;9.03;5.30;;;;;;;9.12;59.98;99874.27;1659984;86;21128;-52
2022/04/20 15:46:35;;;;;;;8.28;5.40;;;;;;;9.16;60.36;99877.47;1713569;81;21016;-52
2022/04/20 15:49:02;;;;;;;8.90;5.50;;;;;;;9.14;60.52;99878.08;1706577;82;21143;-52
2022/04/20 15:51:32;;;;;;;10.38;6.22;;;;;;;9.07;60.95;99877.27;1722062;81;21524;-52
2022/04/20 15:54:00;;;;;;;10.48;6.10;;;;;;;9.02;61.46;99879.43;1714654;82;21000;-52
2022/04/20 16:02:00;;;;;;;10.82;6.33;;;;;;;8.84;62.49;99884.86;1723561;80;21108;-51
2022/04/20 16:04:32;;;;;;;8.63;5.25;;;;;;;8.76;62.90;99885.95;1705664;82;22166;-51
2022/04/20 16:06:55;;;;;;;10.50;6.20;;;;;;;8.68;63.31;99883.48;1729111;80;21051;-54
2022/04/20 16:09:22;;;;;;;9.03;5.95;;;;;;;8.65;63.57;99882.89;1736725;82;21019;-54
2022/04/20 16:11:49;;;;;;;9.78;5.60;;;;;;;8.69;63.69;99886.47;1721761;80;21054;-54
2022/04/20 16:14:18;;;;;;;7.90;6.00;;;;;;;8.72;63.62;99886.68;1708203;84;21074;-54
2022/04/20 16:16:46;;;;;;;10.48;5.92;;;;;;;8.72;63.82;99887.53;1719298;82;22143;-52
2022/04/20 16:19:13;;;;;;;8.48;5.40;;;;;;;8.71;63.89;99885.03;1681197;85;21547;-52
2022/04/20 16:21:41;;;;;;;9.78;5.65;;;;;;;8.71;63.94;99891.10;1658869;84;21087;-52
2022/04/20 16:24:08;;;;;;;10.20;6.10;;;;;;;8.67;63.91;99887.05;1721406;80;21058;-52
2022/04/20 16:26:35;;;;;;;8.45;5.30;;;;;;;8.60;63.92;99892.43;1720235;80;21447;-51
2022/04/20 16:29:04;;;;;;;9.10;5.53;;;;;;;8.52;64.24;99893.52;1729131;80;21098;-53
2022/04/20 16:31:31;;;;;;;8.18;5.40;;;;;;;8.45;64.51;99892.34;1736222;80;21094;-51
2022/04/20 16:33:57;;;;;;;10.35;5.53;;;;;;;8.37;64.77;99896.83;1722129;82;21049;-53
2022/04/20 16:36:25;;;;;;;9.95;5.78;;;;;;;8.33;64.90;99901.97;1728780;82;20999;-52
2022/04/20 16:38:52;;;;;;;8.40;5.22;;;;;;;8.33;64.86;99898.05;1716785;82;21244;-51
2022/04/20 16:41:20;;;;;;;10.88;5.65;;;;;;;8.35;64.96;99902.68;1733603;82;21054;-52
2022/04/20 16:43:47;;;;;;;9.05;5.95;;;;;;;8.33;65.02;99906.73;1676053;83;21445;-51
2022/04/20 16:46:14;;;;;;;8.73;5.10;;;;;;;8.28;65.17;99893.16;1718630;80;21105;-52
2022/04/20 16:48:41;;;;;;;8.73;5.67;;;;;;;8.25;65.36;99901.25;1710257;82;21090;-52
2022/04/20 16:51:09;;;;;;;8.73;4.87;;;;;;;8.20;65.59;99902.09;1727459;82;21589;-52
2022/04/20 16:53:36;;;;;;;9.88;5.87;;;;;;;8.16;65.80;99905.91;1675638;83;21078;-53
2022/04/20 16:56:05;;;;;;;8.73;5.10;;;;;;;8.11;65.81;99913.30;1671268;83;21059;-51
2022/04/20 16:58:32;;;;;;;10.20;6.47;;;;;;;8.03;66.10;99912.56;1729380;82;21012;-53
2022/04/20 17:01:03;;;;;;;9.78;5.70;;;;;;;8.00;66.26;99914.96;1679913;83;21043;-53
2022/04/20 17:03:31;;;;;;;8.08;5.47;;;;;;;7.99;66.27;99919.83;1679475;85;21170;-53
2022/04/20 17:05:59;;;;;;;8.23;5.33;;;;;;;8.02;66.30;99918.78;1733809;80;21524;-53
2022/04/20 17:08:26;;;;;;;8.60;5.55;;;;;;;8.03;66.39;99920.42;1731615;82;21055;-53
2022/04/20 17:10:56;;;;;;;9.15;5.87;;;;;;;8.03;66.45;99921.73;1730945;80;22304;-52
2022/04/20 17:13:24;;;;;;;8.00;5.22;;;;;;;8.04;66.36;99919.97;1729995;80;21035;-52
2022/04/20 17:15:52;;;;;;;10.70;5.70;;;;;;;7.99;66.22;99920.31;1736986;82;21071;-52
2022/04/20 17:18:20;;;;;;;9.75;5.55;;;;;;;7.91;66.29;99916.96;1738498;82;21122;-52
2022/04/20 17:26:34;;;;;;;13.95;8.05;;;;;;;7.77;66.63;99914.58;1721339;80;21039;-52
2022/04/20 17:29:07;;;;;;;17.95;8.98;;;;;;;7.76;66.78;99918.13;1733999;80;21071;-53
2022/04/20 17:31:37;;;;;;;18.85;8.80;;;;;;;7.81;66.61;99923.86;1733212;82;21103;-53
2022/04/20 17:34:04;;;;;;;13.93;7.40;;;;;;;7.79;66.67;99914.80;1709857;82;21031;-53
2022/04/20 17:36:49;;;;;;;10.03;5.65;;;;;;;7.79;66.74;99920.52;1738793;82;21134;-52
2022/04/20 17:39:22;;;;;;;10.23;5.55;;;;;;;7.75;66.93;99910.77;1740448;80;21038;-52
2022/04/20 17:41:50;;;;;;;10.15;5.50;;;;;;;7.73;67.05;99917.05;1729625;80;22278;-51
2022/04/20 17:44:17;;;;;;;9.23;5.00;;;;;;;7.70;67.14;99917.28;1739051;82;21634;-52
2022/04/20 17:46:47;;;;;;;7.55;4.47;;;;;;;7.67;67.19;99917.05;1732662;82;21090;-51
2022/04/20 17:49:15;;;;;;;8.35;5.00;;;;;;;7.63;67.15;99919.52;1736444;80;21051;-52
2022/04/20 17:51:44;;;;;;;9.25;5.53;;;;;;;7.63;67.16;99922.14;1734709;80;21035;-53
2022/04/20 17:54:11;;;;;;;9.20;4.80;;;;;;;7.65;66.94;99919.41;1713391;82;21223;-53
2022/04/20 17:56:40;;;;;;;8.33;5.03;;;;;;;7.69;67.09;99924.79;1737141;82;21019;-52
2022/04/20 17:59:07;;;;;;;8.53;5.28;;;;;;;7.72;67.06;99920.64;1669222;84;21598;-52
2022/04/20 18:01:38;;;;;;;8.55;5.72;;;;;;;7.74;67.13;99920.04;1678454;83;21055;-51
2022/04/20 18:04:07;;;;;;;8.40;4.58;;;;;;;7.73;67.13;99918.36;1698343;83;21032;-53
2022/04/20 18:06:35;;;;;;;8.88;5.33;;;;;;;7.71;67.11;99916.34;1666818;85;22237;-51
2022/04/20 18:09:02;;;;;;;9.45;5.17;;;;;;;7.69;67.14;99915.14;1672020;83;21070;-51
2022/04/20 18:11:30;;;;;;;8.00;5.30;;;;;;;7.68;67.21;99916.08;1672099;83;21568;-52
2022/04/20 18:13:57;;;;;;;7.33;4.70;;;;;;;7.68;67.25;99920.49;1632610;85;21061;-51
2022/04/20 18:16:25;;;;;;;9.08;4.45;;;;;;;7.62;67.25;99912.15;1722904;81;21436;-52
2022/04/20 18:18:52;;;;;;;8.28;4.30;;;;;;;7.62;67.22;99912.15;1662179;84;21730;-52
2022/04/20 18:21:19;;;;;;;6.90;3.77;;;;;;;7.65;67.06;99911.09;1728071;81;21558;-52
2022/04/20 18:23:47;;;;;;;7.00;4.28;;;;;;;7.69;67.23;99914.31;1731252;82;21047;-52
2022/04/20 18:26:13;;;;;;;8.13;3.92;;;;;;;7.74;67.25;99901.22;1665768;84;21141;-52
2022/04/20 18:28:40;;;;;;;8.13;4.80;;;;;;;7.76;67.22;99900.63;1664460;84;21883;-52
2022/04/20 18:31:06;;;;;;;8.30;4.90;;;;;;;7.74;67.13;99899.09;1670585;85;21165;-53
2022/04/20 18:33:34;;;;;;;7.72;4.78;;;;;;;7.67;67.12;99897.89;1727826;81;21087;-53
2022/04/20 18:36:04;;;;;;;8.08;4.70;;;;;;;7.63;67.20;99899.43;1668256;84;21087;-52
2022/04/20 18:38:32;;;;;;;6.90;4.45;;;;;;;7.57;67.26;99896.44;1673803;85;21660;-52
2022/04/20 18:40:58;;;;;;;6.78;4.28;;;;;;;7.53;67.35;99894.53;1670018;84;21540;-52
2022/04/20 18:43:31;;;;;;;9.53;4.92;;;;;;;7.46;67.44;99892.47;1669294;83;21908;-52
2022/04/20 18:45:54;;;;;;;7.53;4.45;;;;;;;7.44;67.56;99892.58;1667367;83;21087;-52
2022/04/20 18:48:21;;;;;;;8.23;4.87;;;;;;;7.48;67.50;99892.73;1729507;81;21074;-52
2022/04/20 18:50:49;;;;;;;8.15;4.42;;;;;;;7.54;67.53;99884.88;1727346;82;21111;-52
2022/04/20 18:58:49;;;;;;;7.40;4.60;;;;;;;7.43;67.58;99871.27;1715702;81;21048;-52
2022/04/20 19:01:15;;;;;;;11.03;5.60;;;;;;;7.36;67.73;99872.69;1717379;81;21039;-52
2022/04/20 19:03:44;;;;;;;8.30;4.92;;;;;;;7.27;67.95;99876.01;1710831;82;22291;-52
2022/04/20 19:06:10;;;;;;;8.65;5.17;;;;;;;7.20;68.11;99873.01;1669359;85;21569;-53
2022/04/20 19:08:37;;;;;;;10.48;5.45;;;;;;;7.17;68.27;99871.44;1696859;83;21180;-52
2022/04/20 19:11:05;;;;;;;9.18;5.37;;;;;;;7.19;68.29;99874.77;1691322;84;21475;-52
2022/04/20 19:13:33;;;;;;;11.12;5.58;;;;;;;7.25;68.21;99868.27;1684142;83;21518;-52
2022/04/20 19:16:04;;;;;;;11.22;5.00;;;;;;;7.35;68.19;99872.34;1677254;84;21054;-52
2022/04/20 19:18:31;;;;;;;10.15;4.95;;;;;;;7.45;68.07;99868.09;1683533;84;21093;-52
2022/04/20 19:20:59;;;;;;;11.88;5.33;;;;;;;7.47;67.91;99870.59;1688408;83;21211;-53
2022/04/20 19:23:27;;;;;;;10.00;5.33;;;;;;;7.45;67.72;99868.09;1688620;83;21098;-52
2022/04/20 19:25:54;;;;;;;9.43;5.45;;;;;;;7.41;67.68;99866.18;1684376;84;21019;-52
2022/04/20 19:28:26;;;;;;;8.20;5.17;;;;;;;7.40;67.80;99861.88;1693502;83;21107;-52
2022/04/20 19:30:49;;;;;;;8.25;4.95;;;;;;;7.38;67.69;99863.79;1687394;84;22141;-52
2022/04/20 19:33:18;;;;;;;7.70;4.53;;;;;;;7.32;67.72;99859.00;1677350;83;21233;-53
2022/04/20 19:35:45;;;;;;;8.28;5.40;;;;;;;7.24;67.93;99860.05;1676345;84;21113;-52
2022/04/20 19:38:14;;;;;;;8.85;4.87;;;;;;;7.22;68.01;99856.23;1667014;83;21062;-53
2022/04/20 19:40:41;;;;;;;9.03;5.00;;;;;;;7.29;67.99;99858.41;1668151;84;21078;-53
2022/04/20 19:43:07;;;;;;;9.18;4.95;;;;;;;7.35;67.91;99850.10;1680765;83;21060;-52
2022/04/20 19:45:37;;;;;;;8.20;4.62;;;;;;;7.41;67.71;99856.16;1667118;84;21213;-52
2022/04/20 19:48:04;;;;;;;7.83;5.42;;;;;;;7.40;67.61;99857.13;1672256;83;21060;-52
2022/04/20 19:50:31;;;;;;;10.35;5.22;;;;;;;7.36;67.52;99853.06;1682175;84;22223;-52
2022/04/20 19:52:58;;;;;;;8.90;5.83;;;;;;;7.33;67.62;99858.52;1672568;84;21078;-53
2022/04/20 19:55:30;;;;;;;9.70;5.45;;;;;;;7.33;67.82;99856.76;1674251;84;21105;-52
2022/04/20 19:57:55;;;;;;;7.90;4.85;;;;;;;7.34;67.78;99857.58;1695299;82;21445;-52
2022/04/20 20:00:23;;;;;;;9.65;5.90;;;;;;;7.29;67.90;99853.99;1666058;84;21059;-52
2022/04/20 20:02:50;;;;;;;8.38;5.30;;;;;;;7.28;67.87;99862.81;1688545;84;21428;-53
2022/04/20 20:05:18;;;;;;;7.62;4.53;;;;;;;7.30;68.11;99862.22;1709219;83;20988;-52
2022/04/20 20:07:45;;;;;;;8.65;5.78;;;;;;;7.40;68.06;99856.64;1670964;84;21560;-52
2022/04/20 20:10:12;;;;;;;8.13;5.10;;;;;;;7.51;67.94;99857.62;1665710;85;21577;-52
2022/04/20 20:12:40;;;;;;;9.18;5.03;;;;;;;7.62;67.94;99853.72;1663321;85;21607;-53
2022/04/20 20:15:08;;;;;;;9.23;5.08;;;;;;;7.73;67.86;99854.20;1677401;85;21495;-53
2022/04/20 20:17:36;;;;;;;9.43;5.47;;;;;;;7.81;67.64;99855.27;1657968;85;21579;-52
2022/04/20 20:20:05;;;;;;;9.60;5.60;;;;;;;7.88;67.42;99854.32;1670878;85;21079;-53
2022/04/20 20:22:33;;;;;;;10.93;6.70;;;;;;;7.92;67.23;99850.53;1665239;85;21074;-53
2022/04/20 20:30:33;;;;;;;10.93;6.62;;;;;;;7.87;66.97;99852.67;1670659;85;21059;-52
2022/04/20 20:33:00;;;;;;;13.25;7.55;;;;;;;7.81;67.12;99851.34;1656377;85;21071;-53
2022/04/20 20:35:28;;;;;;;11.30;6.75;;;;;;;7.79;67.18;99853.73;1649230;85;21437;-52
2022/04/20 20:37:55;;;;;;;11.08;7.53;;;;;;;7.78;67.22;99845.51;1712253;82;21488;-53
2022/04/20 20:40:22;;;;;;;12.58;6.50;;;;;;;7.80;67.18;99850.14;1715483;83;21701;-52
2022/04/20 20:42:51;;;;;;;12.03;6.42;;;;;;;7.84;67.22;99853.39;1712285;82;21094;-53
2022/04/20 20:45:18;;;;;;;11.80;7.05;;;;;;;7.88;67.34;99851.70;1707839;82;21031;-52
2022/04/20 20:47:46;;;;;;;12.85;7.47;;;;;;;7.93;67.39;99848.25;1693559;82;21029;-53
2022/04/20 20:52:58;;;;;;;12.95;7.62;;;;;;;7.92;67.31;99853.63;1694529;82;21584;-52
2022/04/20 20:55:30;;;;;;;12.78;8.20;;;;;;;7.91;67.44;99854.58;1697900;83;20989;-52
2022/04/20 20:57:57;;;;;;;12.10;7.00;;;;;;;7.94;67.57;99851.72;1693316;82;21027;-52
2022/04/20 21:00:26;;;;;;;12.45;7.58;;;;;;;7.95;67.39;99851.61;1714239;82;21067;-52
2022/04/20 21:02:52;;;;;;;13.08;7.35;;;;;;;7.93;67.26;99852.17;1715250;82;21062;-52
2022/04/20 21:05:20;;;;;;;10.75;6.67;;;;;;;7.90;67.38;99855.06;1701571;82;21099;-52
2022/04/20 21:07:47;;;;;;;11.60;6.58;;;;;;;7.88;67.21;99849.56;1726900;81;21081;-53
2022/04/20 21:10:14;;;;;;;8.88;5.83;;;;;;;7.88;67.12;99848.25;1669700;84;21138;-53
2022/04/20 21:12:42;;;;;;;11.25;6.45;;;;;;;7.89;67.07;99846.00;1660329;85;21206;-53
2022/04/20 21:15:12;;;;;;;9.48;6.03;;;;;;;7.86;67.08;99849.69;1693388;84;21020;-53
2022/04/20 21:17:40;;;;;;;9.93;6.37;;;;;;;7.83;67.26;99845.98;1684395;82;21049;-53
2022/04/20 21:20:12;;;;;;;9.53;5.85;;;;;;;7.79;67.39;99840.64;1660801;85;21020;-52
2022/04/20 21:22:38;;;;;;;10.32;6.90;;;;;;;7.73;67.44;99846.34;1672188;84;21115;-52
2022/04/20 21:25:08;;;;;;;8.65;5.47;;;;;;;7.69;67.53;99840.51;1671263;85;21158;-53
2022/04/20 21:27:34;;;;;;;9.50;6.37;;;;;;;7.67;67.56;99838.97;1666049;84;21055;-53
2022/04/20 21:30:01;;;;;;;9.58;6.45;;;;;;;7.61;67.56;99833.23;1693592;83;21009;-52
2022/04/20 21:32:27;;;;;;;9.43;5.40;;;;;;;7.59;67.63;99835.13;1674305;82;21017;-52
2022/04/20 21:34:55;;;;;;;9.63;5.05;;;;;;;7.63;67.61;99830.03;1682411;84;22331;-52
2022/04/20 21:37:22;;;;;;;8.18;5.12;;;;;;;7.66;67.44;99818.48;1692510;84;21918;-53
2022/04/20 21:39:49;;;;;;;8.90;5.65;;;;;;;7.70;67.35;99821.69;1692390;84;21568;-53
2022/04/20 21:42:17;;;;;;;9.35;5.60;;;;;;;7.66;67.32;99814.55;1697090;84;21644;-53
2022/04/20 21:44:47;;;;;;;9.85;5.75;;;;;;;7.61;67.41;99818.82;1685565;84;21024;-52
2022/04/20 21:47:15;;;;;;;9.00;5.67;;;;;;;7.55;67.50;99818.00;1696087;83;21094;-52
2022/04/20 21:49:43;;;;;;;8.80;5.30;;;;;;;7.53;67.71;99812.52;1692918;84;21785;-52
2022/04/20 21:52:12;;;;;;;8.25;5.12;;;;;;;7.49;67.67;99816.33;1691753;83;21063;-52
2022/04/20 21:54:40;;;;;;;9.23;5.78;;;;;;;7.43;67.77;99814.99;1692507;84;21101;-53
2022/04/20 21:57:09;;;;;;;7.28;5.12;;;;;;;7.39;67.81;99814.39;1728804;82;21013;-52
2022/04/20 21:59:38;;;;;;;8.25;5.00;;;;;;;7.43;67.82;99814.99;1729333;81;21063;-52
2022/04/20 22:10:24;;;;;;;9.08;5.47;;;;;;;7.58;68.09;99823.47;1726445;82;20171;-53
2022/04/20 22:12:55;;;;;;;10.78;6.55;;;;;;;7.52;68.31;99826.09;1733519;82;21099;-52
2022/04/20 22:15:23;;;;;;;12.65;6.50;;;;;;;7.52;68.36;99826.09;1669865;84;21180;-53
2022/04/20 22:17:51;;;;;;;9.93;6.08;;;;;;;7.53;68.28;99819.91;1716333;82;21091;-53
2022/04/20 22:20:18;;;;;;;8.93;5.78;;;;;;;7.48;68.26;99820.73;1726927;81;21048;-52
2022/04/20 22:22:46;;;;;;;10.72;6.05;;;;;;;7.50;68.23;99814.05;1725332;81;21059;-52
2022/04/20 22:25:14;;;;;;;10.10;5.37;;;;;;;7.53;68.07;99815.13;1724557;82;21434;-52
2022/04/20 22:27:41;;;;;;;10.55;5.80;;;;;;;7.57;68.13;99813.48;1726727;82;21209;-53
2022/04/20 22:30:10;;;;;;;11.43;6.15;;;;;;;7.62;68.06;99805.28;1724122;81;21097;-52
2022/04/20 22:32:36;;;;;;;11.68;6.50;;;;;;;7.62;67.94;99808.72;1728223;81;21528;-53
2022/04/20 22:35:04;;;;;;;9.28;5.03;;;;;;;7.59;68.01;99812.05;1728177;81;21586;-53
2022/04/20 22:37:31;;;;;;;9.48;5.67;;;;;;;7.58;67.99;99810.37;1732350;82;21094;-52
2022/04/20 22:39:58;;;;;;;8.50;4.90;;;;;;;7.56;67.98;99817.03;1726007;81;21704;-52
2022/04/20 22:42:25;;;;;;;9.83;5.53;;;;;;;7.53;68.06;99813.37;1714919;81;21048;-53
2022/04/20 22:44:53;;;;;;;8.40;5.65;;;;;;;7.49;68.12;99806.69;1721176;82;21110;-53
2022/04/20 22:47:20;;;;;;;8.25;4.95;;;;;;;7.47;68.11;99807.28;1725658;81;21091;-53
2022/04/20 22:49:49;;;;;;;10.25;5.70;;;;;;;7.47;67.97;99807.28;1708400;81;21064;-53
2022/04/20 22:52:15;;;;;;;10.30;4.90;;;;;;;7.51;67.95;99800.84;1716902;82;21294;-53